Latest Weather Observations for Bankstown

IDN60901

Issued at 8:45 am EDT Wednesday 26 November 2014 (issued every 10 minutes, with the page automatically refreshed every 10 minutes)

About weather observations | Map of Sydney area stations | Latest observations for Sydney area | Other Formats
Station Details ID: 066137 Name: BANKSTOWN AIRPORT AWS Lat: -33.92 Lon: 150.99 Height: 6.5 m
Data from the previous 72 hours. | See also: Recent months at Bankstown
Date/Time
EDT
Tmp

°C
App
Tmp
°C
Dew
Point
°C
Rel
Hum
%
Delta-T

°C
Wind Press
QNH
hPa
Press
MSL
hPa
Rain
since
9 am
mm
Dir
 
Spd
km/h
Gust
km/h
Spd
kts
Gust
kts
26/08:30am 21.4 19.6 10.9 51 5.8 NNE 11 17 6 9 1019.7 1019.7 0.0
26/08:00am 20.9 19.4 11.8 56 5.1 N 11 17 6 9 1019.7 1019.7 0.0
26/07:30am 20.2 18.3 11.9 59 4.6 N 13 19 7 10 1019.5 1019.5 0.0
26/07:00am 19.6 17.3 11.6 60 4.4 NNE 15 20 8 11 1019.4 1019.4 0.0
26/06:30am 19.4 17.8 11.7 61 4.2 NNE 11 17 6 9 1019.3 1019.3 0.0
26/06:00am 19.3 18.2 11.8 62 4.1 NNE 9 13 5 7 1019.3 1019.3 0.0
26/05:30am 19.3 18.2 12.1 63 4.0 NE 9 15 5 8 1019.1 1019.1 0.0
26/05:00am 19.1 18.4 11.9 63 4.0 NE 7 13 4 7 1018.9 1018.9 0.0
26/04:30am 19.1 17.9 11.7 62 4.1 ENE 9 17 5 9 1018.7 1018.7 0.0
26/04:00am 19.5 17.5 11.5 60 4.4 NE 13 22 7 12 1018.9 1018.9 0.0
26/03:30am 19.4 17.9 11.9 62 4.2 NE 11 17 6 9 1019.0 1019.0 0.0
26/03:00am 19.5 18.0 11.8 61 4.2 ENE 11 17 6 9 1019.2 1019.2 0.0
26/02:30am 19.7 17.5 12.0 61 4.3 ENE 15 19 8 10 1019.4 1019.4 0.0
26/02:00am 19.7 17.5 12.0 61 4.3 E 15 20 8 11 1019.6 1019.6 0.0
26/01:30am 19.7 17.1 12.0 61 4.3 E 17 24 9 13 1020.0 1020.0 0.0
26/01:00am 19.8 17.6 12.1 61 4.3 E 15 22 8 12 1020.3 1020.3 0.0
26/12:30am 19.9 17.4 12.2 61 4.3 E 17 24 9 13 1020.6 1020.6 0.0
26/12:00am 19.9 17.0 12.2 61 4.3 E 19 24 10 13 1020.6 1020.6 0.0
 
Date/Time
EDT
Tmp

°C
App
Tmp
°C
Dew
Point
°C
Rel
Hum
%
Delta-T

°C
Wind Press
QNH
hPa
Press
MSL
hPa
Rain
since
9 am
mm
Dir
 
Spd
km/h
Gust
km/h
Spd
kts
Gust
kts
25/11:30pm 20.0 17.9 12.3 61 4.3 E 15 19 8 10 1020.6 1020.6 0.0
25/11:00pm 20.0 18.2 12.0 60 4.4 E 13 19 7 10 1020.8 1020.8 0.0
25/10:30pm 20.2 19.2 12.2 60 4.5 E 9 13 5 7 1020.9 1020.9 0.0
25/10:00pm 20.1 17.9 12.1 60 4.4 E 15 19 8 10 1020.6 1020.6 0.0
25/09:30pm 20.0 18.1 11.7 59 4.6 E 13 19 7 10 1020.2 1020.2 0.0
25/09:00pm 20.0 17.3 11.7 59 4.6 E 17 22 9 12 1019.9 1019.9 0.0
25/08:30pm 20.0 16.9 11.7 59 4.6 E 19 24 10 13 1019.5 1019.5 0.0
25/08:00pm 20.2 16.9 11.7 58 4.7 ESE 20 28 11 15 1019.1 1019.1 0.0
25/07:30pm 20.2 16.6 11.7 58 4.7 ESE 22 28 12 15 1018.5 1018.5 0.0
25/07:00pm 20.7 16.9 11.3 55 5.2 ESE 22 30 12 16 1017.9 1017.9 0.0
25/06:30pm 21.0 16.9 11.3 54 5.4 ESE 24 30 13 16 1017.3 1017.3 0.0
25/06:00pm 21.1 16.9 11.2 53 5.5 E 24 37 13 20 1016.7 1016.7 0.0
25/05:30pm 21.5 17.0 11.5 53 5.6 E 26 37 14 20 1016.3 1016.3 0.0
25/05:00pm 21.8 17.4 11.8 53 5.6 ESE 26 41 14 22 1016.0 1016.0 0.0
25/04:30pm 22.1 17.7 11.8 52 5.8 E 26 35 14 19 1016.0 1016.0 0.0
25/04:00pm 23.1 18.7 11.8 49 6.4 E 26 35 14 19 1015.8 1015.8 0.0
25/03:30pm 22.5 18.2 10.9 48 6.4 E 24 33 13 18 1015.6 1015.6 0.0
25/03:00pm 23.3 18.5 11.7 48 6.5 ESE 28 33 15 18 1015.8 1015.8 0.0
25/02:30pm 22.8 19.0 12.4 52 5.9 E 24 32 13 17 1016.0 1016.0 0.0
25/02:00pm 22.5 18.7 12.4 52 5.7 E 24 30 13 16 1016.1 1016.1 0.0
25/01:30pm 22.6 18.8 12.3 52 5.8 ESE 24 33 13 18 1016.0 1016.0 0.0
25/01:00pm 23.3 20.1 13.2 53 5.8 ESE 22 30 12 16 1016.1 1016.1 0.0
25/12:30pm 22.8 19.0 12.4 52 5.9 ESE 24 30 13 16 1016.0 1016.0 0.0
25/12:00pm 22.5 19.7 12.7 54 5.6 ESE 19 28 10 15 1015.9 1015.9 0.0
25/11:30am 22.6 19.6 12.5 53 5.7 ESE 20 26 11 14 1015.6 1015.6 0.0
25/11:00am 24.7 19.7 3.4 25 10.4 WSW 19 24 10 13 1015.4 1015.4 0.0
25/10:30am 24.2 19.7 4.0 27 9.9 SW 17 22 9 12 1015.3 1015.3 0.0
25/10:00am 23.9 18.4 2.1 24 10.3 SW 20 32 11 17 1014.6 1014.6 0.0
25/09:30am 24.1 17.5 2.3 24 10.4 SW 26 41 14 22 1014.1 1014.1 0.0
25/09:00am 23.8 22.3 14.2 55 5.7 S 15 22 8 12 1013.3 1013.3 8.8
25/08:30am 24.1 21.8 14.2 54 5.8 SW 19 28 10 15 1012.7 1012.7 8.8
25/08:00am 23.6 26.2 17.6 69 3.7 CALM 0 0 0 0 1011.8 1011.8 8.8
25/07:30am 23.4 25.5 17.2 68 3.8 SSW 2 7 1 4 1011.2 1011.2 8.8
25/07:00am 23.2 24.3 18.1 73 3.2 SW 9 13 5 7 1010.3 1010.3 8.8
25/06:30am 22.8 24.2 17.7 73 3.2 NW 7 13 4 7 1009.6 1009.6 8.8
25/06:00am 23.2 23.3 17.4 70 3.6 NW 13 19 7 10 1009.1 1009.1 8.8
25/05:30am 23.4 23.2 17.6 70 3.6 N 15 22 8 12 1008.3 1008.3 8.8
25/05:00am 23.1 23.1 18.0 73 3.2 NNW 15 19 8 10 1007.9 1007.9 8.8
25/04:30am 23.1 22.4 18.2 74 3.1 NNW 19 22 10 12 1008.0 1008.0 8.8
25/04:00am 23.3 21.9 18.0 72 3.3 NNW 22 30 12 16 1007.9 1007.9 8.8
25/03:30am 23.1 22.5 18.4 75 3.0 NNW 19 26 10 14 1007.7 1007.7 8.8
25/03:00am 23.1 22.3 18.4 75 3.0 N 20 30 11 16 1007.2 1007.2 8.8
25/02:30am 23.0 22.5 19.0 78 2.5 N 20 30 11 16 1007.4 1007.4 8.8
25/02:00am 23.6 23.3 19.1 76 2.9 NNW 19 26 10 14 1008.6 1008.6 8.4
25/01:30am 23.9 25.6 20.2 80 2.4 NNW 11 17 6 9 1008.5 1008.5 8.2
25/01:00am 23.4 26.7 20.0 81 2.2 NW 2 9 1 5 1008.8 1008.8 8.0
25/12:30am 23.4 25.3 19.8 80 2.3 NNW 9 11 5 6 1008.8 1008.8 8.0
25/12:00am 23.4 25.6 19.5 79 2.5 N 7 11 4 6 1008.9 1008.9 8.0
 
Date/Time
EDT
Tmp

°C
App
Tmp
°C
Dew
Point
°C
Rel
Hum
%
Delta-T

°C
Wind Press
QNH
hPa
Press
MSL
hPa
Rain
since
9 am
mm
Dir
 
Spd
km/h
Gust
km/h
Spd
kts
Gust
kts
24/11:30pm 23.1 25.9 19.7 81 2.2 N 4 9 2 5 1009.0 1009.0 8.0
24/11:00pm 23.1 25.4 19.5 80 2.3 N 6 11 3 6 1009.3 1009.3 8.0
24/10:30pm 23.4 26.3 19.1 77 2.7 S 2 7 1 4 1009.1 1009.1 8.0
24/10:00pm 23.1 25.6 19.1 78 2.5 S 4 7 2 4 1009.5 1009.5 8.0
24/09:30pm 23.0 26.4 19.4 80 2.3 CALM 0 9 0 5 1009.1 1009.1 8.0
24/09:00pm 22.9 24.6 19.3 80 2.3 SSW 9 9 5 5 1009.2 1009.2 8.0
24/08:30pm 22.9 26.2 19.1 79 2.4 CALM 0 0 0 0 1008.6 1008.6 8.0
24/08:00pm 22.9 25.0 19.3 80 2.3 WSW 7 11 4 6 1008.8 1008.8 8.0
24/07:30pm 23.5 25.3 18.8 75 3.0 ESE 7 11 4 6 1008.2 1008.2 8.0
24/07:00pm 23.6 25.6 18.7 74 3.1 SE 6 11 3 6 1008.1 1008.1 8.0
24/06:30pm 23.5 23.4 18.8 75 3.0 ENE 17 24 9 13 1008.3 1008.3 8.0
24/06:00pm 23.6 23.0 18.9 75 3.0 E 20 28 11 15 1007.4 1007.4 8.0
24/05:30pm 23.8 24.0 20.1 80 2.4 SE 19 24 10 13 1007.6 1007.6 8.0
24/05:00pm 23.1 23.1 20.2 84 1.9 ESE 20 28 11 15 1007.7 1007.7 8.0
24/04:30pm 23.0 23.2 20.5 86 1.6 ESE 20 26 11 14 1007.7 1007.7 8.0
24/04:13pm 23.0 23.4 20.7 87 1.5 SE 19 22 10 12 1007.7 1007.7 8.0
24/04:00pm 22.4 21.5 19.9 86 1.6 E 24 28 13 15 1007.4 1007.4 8.0
24/03:52pm 22.5 21.7 19.3 82 2.0 SE 22 28 12 15 1007.9 1007.9 7.0
24/03:48pm 23.2 22.4 18.5 75 3.0 WSW 20 28 11 15 1010.1 1010.1 3.0
24/03:39pm 25.1 24.9 18.5 67 4.2 SW 17 24 9 13 1009.6 1009.6 0.0
24/03:30pm 26.2 24.9 17.3 58 5.6 SE 20 28 11 15 1007.6 1007.6 0.0
24/03:00pm 28.2 24.9 16.1 47 7.5 ESE 28 35 15 19 1006.9 1006.9 0.0
24/02:30pm 30.5 27.3 15.4 40 9.3 E 26 33 14 18 1007.2 1007.2 0.0
24/02:00pm 32.1 29.4 15.6 37 10.3 E 24 35 13 19 1007.8 1007.8 0.0
24/01:30pm 32.7 31.7 15.7 36 10.6 E 15 24 8 13 1008.4 1008.4 0.0
24/01:00pm 31.2 31.1 16.0 40 9.5 E 11 19 6 10 1009.3 1009.3 0.0
24/12:30pm 31.1 32.5 17.8 45 8.5 WNW 7 11 4 6 1010.2 1010.2 0.0
24/12:00pm 29.1 30.0 17.6 50 7.3 S 9 17 5 9 1011.0 1011.0 0.0
24/11:30am 27.4 28.9 17.6 55 6.2 N 6 11 3 6 1012.1 1012.1 0.0
24/11:00am 26.4 27.9 17.7 58 5.5 E 6 9 3 5 1013.0 1013.0 0.0
24/10:30am 24.9 25.7 17.4 63 4.7 SSW 9 15 5 8 1013.6 1013.6 0.0
24/10:00am 24.2 25.9 17.2 65 4.3 SE 4 11 2 6 1014.2 1014.2 0.0
24/09:30am 23.7 25.6 17.7 69 3.7 E 4 11 2 6 1014.6 1014.6 0.0
24/09:09am 23.2 24.7 17.6 71 3.5 ESE 6 11 3 6 1014.9 1014.9 0.0
24/09:00am 23.0 24.5 17.5 71 3.4 SE 6 9 3 5 1015.2 1015.2 0.0
24/08:30am 22.4 23.3 17.5 74 3.0 ESE 9 13 5 7 1015.3 1015.3 0.0
24/08:00am 22.0 21.4 17.6 76 2.7 E 17 24 9 13 1014.7 1014.7 0.0
24/07:30am 22.1 21.6 17.7 76 2.7 E 17 24 9 13 1014.7 1014.7 0.0
24/07:00am 21.5 19.4 17.1 76 2.7 E 24 32 13 17 1014.1 1014.1 0.0
24/06:31am 21.3 18.9 17.3 78 2.5 E 26 39 14 21 1013.5 1013.5 0.0
24/06:30am 21.3 18.9 17.3 78 2.5 E 26 39 14 21 1013.4 1013.4 0.0
24/06:00am 21.5 20.4 17.7 79 2.3 E 20 28 11 15 1013.1 1013.1 0.0
24/05:30am 21.6 21.9 17.8 79 2.4 E 13 17 7 9 1012.4 1012.4 0.0
24/05:00am 21.5 22.6 18.1 81 2.1 E 9 11 5 6 1011.8 1011.8 0.0
24/04:30am 21.0 22.1 18.0 83 1.9 S 9 9 5 5 1011.9 1011.9 0.0
24/04:00am 20.7 21.9 17.3 81 2.1 SSW 7 11 4 6 1011.9 1011.9 0.0
24/03:30am 21.7 23.6 17.7 78 2.5 E 4 9 2 5 1011.8 1011.8 0.0
24/03:00am 21.9 23.5 17.9 78 2.5 ESE 6 9 3 5 1012.0 1012.0 0.0
24/02:30am 22.2 24.6 18.0 77 2.6 ENE 2 7 1 4 1012.1 1012.1 0.0
24/02:00am 22.2 23.3 18.0 77 2.6 SE 9 11 5 6 1012.7 1012.7 0.0
24/01:30am 22.2 22.9 18.0 77 2.6 ESE 11 13 6 7 1013.0 1013.0 0.0
24/01:00am 21.8 22.8 17.8 78 2.5 S 9 11 5 6 1013.6 1013.6 0.0
24/12:30am 22.1 23.7 17.9 77 2.6 SW 6 9 3 5 1013.6 1013.6 0.0
24/12:00am 22.3 23.9 17.9 76 2.7 N 6 11 3 6 1014.0 1014.0 0.0
 
Date/Time
EDT
Tmp

°C
App
Tmp
°C
Dew
Point
°C
Rel
Hum
%
Delta-T

°C
Wind Press
QNH
hPa
Press
MSL
hPa
Rain
since
9 am
mm
Dir
 
Spd
km/h
Gust
km/h
Spd
kts
Gust
kts
23/11:30pm 22.3 23.7 17.7 75 2.9 SE 7 13 4 7 1013.8 1013.8 0.0
23/11:00pm 22.1 23.5 17.7 76 2.7 S 7 9 4 5 1014.4 1014.4 0.0
23/10:30pm 22.4 21.5 17.8 75 2.9 E 19 24 10 13 1013.3 1013.3 0.0
23/10:00pm 22.6 22.1 17.9 75 2.9 E 17 26 9 14 1013.3 1013.3 0.0
23/09:30pm 22.6 22.3 18.2 76 2.8 E 17 24 9 13 1012.9 1012.9 0.0
23/09:00pm 22.6 21.8 18.4 77 2.6 ESE 20 24 11 13 1012.0 1012.0 0.0
23/08:30pm 22.8 22.0 19.2 80 2.3 ESE 22 30 12 16 1012.7 1012.7 0.0
23/08:00pm 23.2 22.9 18.3 74 3.1 SSE 17 20 9 11 1012.6 1012.6 0.0
23/07:30pm 23.3 22.6 18.2 73 3.2 S 19 32 10 17 1011.3 1011.3 0.0
23/07:00pm 24.2 22.8 17.9 68 3.9 SSE 22 33 12 18 1009.9 1009.9 0.0
23/06:30pm 25.2 21.8 18.2 65 4.4 ESE 33 46 18 25 1008.2 1008.2 0.0
23/06:00pm 24.6 20.4 18.8 70 3.7 ESE 39 50 21 27 1007.8 1007.8 0.0
23/05:30pm 26.3 23.0 19.2 65 4.6 ESE 35 46 19 25 1007.0 1007.0 0.0
23/05:00pm 27.8 24.9 18.8 58 5.8 ESE 32 39 17 21 1006.8 1006.8 0.0
23/04:30pm 27.0 25.0 19.1 62 5.1 ESE 28 39 15 21 1006.8 1006.8 0.0
23/04:00pm 29.8 25.3 17.3 47 7.9 ESE 37 46 20 25 1006.6 1006.6 0.0
23/03:53pm 31.3 26.5 16.5 41 9.3 SE 37 46 20 25 1006.7 1006.7 0.0
23/03:30pm 36.3 33.5 15.4 28 13.1 ESE 24 30 13 16 1006.6 1006.6 0.0
23/03:00pm 36.8 35.7 16.4 30 13.1 E 17 24 9 13 1006.8 1006.8 0.0
23/02:30pm 36.3 35.2 17.4 32 12.2 E 19 30 10 16 1007.1 1007.1 0.0
23/02:00pm 36.7 35.6 17.8 32 12.3 ESE 20 28 11 15 1007.3 1007.3 0.0
23/01:30pm 35.0 33.7 17.2 34 11.4 ESE 20 28 11 15 1007.8 1007.8 0.0
23/01:00pm 34.3 33.4 18.3 38 10.4 ESE 20 28 11 15 1008.6 1008.6 0.0
23/12:30pm 33.0 31.8 17.6 40 9.9 E 20 28 11 15 1009.1 1009.1 0.0
23/12:00pm 34.3 33.3 15.7 32 11.7 E 15 24 8 13 1009.6 1009.6 0.0
23/11:30am 33.7 34.0 16.1 34 11.1 ENE 9 15 5 8 1010.2 1010.2 0.0
23/11:00am 31.9 32.3 15.4 37 10.2 NNE 7 15 4 8 1010.6 1010.6 0.0
23/10:30am 29.6 30.6 16.8 46 8.0 ESE 7 13 4 7 1010.8 1010.8 0.0
23/10:00am 28.3 30.3 17.8 53 6.7 E 4 7 2 4 1011.1 1011.1 0.0
23/09:30am 26.5 27.9 17.3 57 5.8 W 6 9 3 5 1011.3 1011.3 0.0
23/09:00am 24.8 26.1 17.5 64 4.6 WNW 7 13 4 7 1011.4 1011.4 0.0

Latest Capital City Observations: Canberra | Sydney | Melbourne | Brisbane | Adelaide | Perth | Hobart | Darwin

Other Formats:

Comma delimited format used in spreadsheet applications
http://www.bom.gov.au/fwo/IDN60901/IDN60901.94765.axf

JavaScript Object Notation format (JSON) in row-major order
http://www.bom.gov.au/fwo/IDN60901/IDN60901.94765.json